Flight Track Log - Related Links

Times and Time Zones

All times are in EDT time to prevent confusion due to time zone crossing. See the RPA3275 flight status page for this flight to view local times or setup timezone preferences in your user account.


Time Position Orientation Groundspeed Altitude Reporting Facility
EDT Latitude Longitude Course Direction KTS MPH feet Rate Location/Type
Sun 09:34:40 AM 39.8667 -75.2833 270° West 151 174 900  Level Philadelphia TRACON
Sun 09:36:05 AM 39.8500 -75.3667 255° West 225 259 3,700 2,154 Climbing Philadelphia TRACON
Sun 09:37:00 AM 39.9140 -75.6560 288° West  Level FlightAware Approximate
Sun 09:37:55 AM 39.8219 -75.5197 257° West 279 321 7,900  Level New York Center
Sun 09:38:00 AM 39.9007 -75.7628 258° West  Level FlightAware Approximate
Sun 09:38:56 AM 39.8361 -75.6344 279° West 279 321 10,400  Level New York Center
Sun 09:39:00 AM 39.9001 -75.8723 270° West  Level FlightAware Approximate
Sun 09:39:54 AM 39.8467 -75.7325 278° West 304 350 12,000  Level New York Center
Sun 09:40:54 AM 39.8578 -75.8603 277° West 323 372 14,200 1,918 Climbing New York Center
Sun 09:41:56 AM 39.8733 -75.9806 280° West 330 380 15,900 1,600 Climbing New York Center
Sun 09:42:54 AM 39.8844 -76.1058 277° West 346 398 17,400 1,361 Climbing New York Center
Sun 09:43:55 AM 39.8978 -76.2233 278° West 357 411 18,600 1,279 Climbing New York Center
Sun 09:44:56 AM 39.9081 -76.3594 276° West 369 425 20,000 1,361 Climbing New York Center
Sun 09:45:54 AM 39.9203 -76.4958 277° West 374 430 21,300 1,361 Climbing New York Center
Sun 09:46:55 AM 39.9347 -76.6297 278° West 374 430 22,700 1,240 Climbing New York Center
Sun 09:47:55 AM 39.9464 -76.7714 276° West 381 438 23,800 1,100 Climbing New York Center
Sun 09:48:55 AM 39.9619 -76.9136 278° West 394 453 24,900 1,160 Climbing New York Center
Sun 09:49:54 AM 39.9750 -77.0583 277° West 399 459 26,100 1,160 Climbing New York Center
Sun 09:50:54 AM 39.9881 -77.2058 277° West 409 471 27,200 942 Climbing New York Center
Sun 09:51:55 AM 39.9986 -77.3561 275° West 414 476 28,000 242 Climbing New York Center
Sun 09:54:12 AM 40.0306 -77.6928 277° West 403 464 28,000  Level Cleveland Center
Sun 09:55:12 AM 40.0422 -77.8331 276° West 398 458 28,000  Level Cleveland Center
Sun 09:56:12 AM 40.0517 -77.9711 275° West 393 452 28,000  Level Cleveland Center
Sun 09:57:12 AM 40.0633 -78.1117 276° West 393 452 28,000  Level Cleveland Center
Sun 09:58:12 AM 40.0744 -78.2497 276° West 388 447 28,000  Level Cleveland Center
Sun 09:59:12 AM 40.0856 -78.3906 276° West 388 447 28,000  Level Cleveland Center
Sun 10:00:12 AM 40.0967 -78.5286 276° West 388 447 28,000  Level Cleveland Center
Sun 10:01:12 AM 40.1072 -78.6667 276° West 388 447 28,000  Level Cleveland Center
Sun 10:02:12 AM 40.1158 -78.8075 275° West 388 447 28,000  Level Cleveland Center
Sun 10:03:12 AM 40.1283 -78.9483 277° West 388 447 28,000  Level Cleveland Center
Sun 10:04:12 AM 40.1386 -79.0867 276° West 388 447 28,000  Level Cleveland Center
Sun 10:05:12 AM 40.1592 -79.2247 281° West 388 447 28,000  Level Cleveland Center
Sun 10:06:12 AM 40.1897 -79.3600 287° West 388 447 28,000  Level Cleveland Center
Sun 10:07:12 AM 40.2183 -79.4983 285° West 394 453 28,000  Level Cleveland Center
Sun 10:08:12 AM 40.2467 -79.6339 285° West 394 453 28,000  Level Cleveland Center
Sun 10:09:12 AM 40.2747 -79.7667 286° West 394 453 28,000  Level Cleveland Center
Sun 10:10:12 AM 40.3008 -79.9025 284° West 394 453 28,000  Level Cleveland Center
Sun 10:11:12 AM 40.3286 -80.0439 284° West 394 453 28,000  Level Cleveland Center
Sun 10:12:12 AM 40.3706 -80.1417 299° West 394 453 28,000  Level Cleveland Center
Sun 10:13:12 AM 40.4419 -80.2831 304° West 389 448 28,000  Level Cleveland Center
Sun 10:14:12 AM 40.5006 -80.3919 305° West 389 448 28,000  Level Cleveland Center
Sun 10:15:12 AM 40.5592 -80.5092 303° West 389 448 28,000  Level Cleveland Center
Sun 10:16:12 AM 40.6236 -80.6378 303° West 389 448 28,000  Level Cleveland Center
Sun 10:17:12 AM 40.6778 -80.7475 303° West 394 453 28,000  Level Cleveland Center
Sun 10:18:12 AM 40.7381 -80.8681 303° West 394 453 28,000  Level Cleveland Center
Sun 10:19:12 AM 40.7961 -80.9889 302° West 394 453 28,000  Level Cleveland Center
Sun 10:20:12 AM 40.8581 -81.1211 302° West 394 453 28,000  Level Cleveland Center
Sun 10:21:12 AM 40.9178 -81.2425 303° West 389 448 28,000  Level Cleveland Center
Sun 10:22:12 AM 40.9775 -81.3669 302° West 389 448 28,000  Level Cleveland Center
Sun 10:23:12 AM 41.0369 -81.4886 303° West 397 457 28,000  Level Cleveland Center
Sun 10:24:12 AM 41.0861 -81.5969 301° West 392 451 28,000  Level Cleveland Center
Sun 10:25:12 AM 41.1497 -81.7192 305° West 400 460 28,000  Level Cleveland Center
Sun 10:26:12 AM 41.2089 -81.8417 303° West 400 460 28,000 -850 Level Cleveland Center
Sun 10:27:12 AM 41.2678 -81.9700 301° West 400 460 26,300 -1,900 Descending Cleveland Center
Sun 10:28:12 AM 41.3267 -82.0872 304° West 394 453 24,200 -2,050 Descending Cleveland Center
Sun 10:29:12 AM 41.3897 -82.2161 303° West 382 440 22,200 -2,000 Descending Cleveland Center
Sun 10:30:12 AM 41.4528 -82.3231 308° West 372 428 20,200 -1,950 Descending Cleveland Center
Sun 10:31:12 AM 41.5136 -82.4217 310° West 366 421 18,300 -1,900 Descending Cleveland Center
Sun 10:32:12 AM 41.5725 -82.5233 308° West 351 404 16,400 -1,700 Descending Cleveland Center
Sun 10:33:12 AM 41.6231 -82.6108 308° West 345 397 14,900 -1,550 Descending Cleveland Center
Sun 10:34:12 AM 41.6797 -82.7044 309° West 340 391 13,300 -1,450 Descending Cleveland Center
Sun 10:35:12 AM 41.7364 -82.7953 310° West 328 377 12,000 -867 Descending Cleveland Center
Sun 10:35:42 AM 41.7792 -82.8442 320° Northwest 322 371 12,000  Level Cleveland Center
Sun 10:36:12 AM 41.8036 -82.8756 316° Northwest 322 371 12,000  Level Cleveland Center
Sun 10:36:43 AM 41.8444 -82.9244 318° Northwest 320 368 12,000  Level Cleveland Center
Sun 10:37:44 AM 41.9094 -83.0022 318° Northwest 318 366 12,000  Level Cleveland Center
Sun 10:38:45 AM 41.9806 -83.0861 319° Northwest 313 360 12,000  Level Cleveland Center
Sun 10:40:12 AM 42.0475 -83.1697 317° Northwest 285 328 12,000  Level Cleveland Center
Sun 10:40:48 AM 42.0839 -83.2158 317° Northwest 245 282 12,000 -625 Level Cleveland Center
Sun 10:41:48 AM 42.1522 -83.2411 345° North 248 285 11,000 -1,033 Descending Cleveland Center
Sun 10:42:50 AM 42.2156 -83.2044 23° Northeast 246 283 9,900 -977 Descending Cleveland Center
Sun 10:43:57 AM 42.2811 -83.1625 25° Northeast 234 269 8,900 -1,031 Descending Cleveland Center
Sun 10:44:58 AM 42.3444 -83.1342 18° North 225 259 7,700 -1,756 Descending Cleveland Center
Sun 10:46:00 AM 42.3656 -83.2081 291° West 213 245 5,300 -2,323 Descending Cleveland Center

Login

Don't have an account? Register now (free) for customized features, flight alerts, and more!